Weather at Sollières Sardières Airfield

Public forecast

Using degrees Celsius for public forecast. Weather courtesy of forecast.io.

Closest aviation weather report (METAR) to Sollières Sardières Airfield

Closest report is Torino-Aeritalia Airport, 35.4 nm (65.6 km) ESE. Retrieved 2020/09/19 11:50 UTC (46 minutes ago):

LIMA 191150Z 35004KT 190V050 9999 SCT040 23/15 Q1020

Closest aviation forecast (TAF) to Sollières Sardières Airfield

Closest forecast is Turin Airport, 36.0 nm (66.7 km) E. Retrieved 2020/09/19 12:00 UTC (36 minutes ago):

TAF LIMF 191100Z 1912/2012 VRB06KT 9999 SCT050 TEMPO 2005/2012 SHRA